Time;durP1;ratioP1;P1;durP2;ratioP2;P2;SDS_P1;SDS_P2;PMS_P1;PMS_P2;Temp;Humidity;BMP_temperature;BMP_pressure;BME280_temperature;BME280_humidity;BME280_pressure;Samples;Min_cycle;Max_cycle;Signal;HPM_P1;HPM_P2
2023/01/22 00:01:38;;;;;;;23.15;15.00;;;-0.90;99.90;;;;;;5083619;28;20141;-34
2023/01/22 00:04:04;;;;;;;22.53;14.53;;;-0.90;99.90;;;;;;5081395;28;20063;-33
2023/01/22 00:06:30;;;;;;;22.97;14.77;;;-0.90;99.90;;;;;;5083126;28;20028;-33
2023/01/22 00:08:57;;;;;;;22.63;15.20;;;-0.90;99.90;;;;;;5083088;28;20109;-34
2023/01/22 00:11:22;;;;;;;29.10;18.43;;;-0.90;99.90;;;;;;5082683;28;20055;-32
2023/01/22 00:13:48;;;;;;;29.40;19.00;;;-1.00;99.90;;;;;;5081263;28;20127;-34
2023/01/22 00:16:16;;;;;;;25.75;16.30;;;-1.00;99.90;;;;;;5082233;28;20146;-33
2023/01/22 00:18:42;;;;;;;31.57;19.57;;;-1.00;99.90;;;;;;5081832;28;20139;-33
2023/01/22 00:21:09;;;;;;;29.07;18.17;;;-1.00;99.90;;;;;;5081564;28;20390;-34
2023/01/22 00:23:35;;;;;;;25.00;16.93;;;-1.10;99.90;;;;;;5082773;28;20471;-34
2023/01/22 00:26:02;;;;;;;31.33;19.98;;;-1.10;99.90;;;;;;5081260;28;20035;-33
2023/01/22 00:28:28;;;;;;;28.70;18.67;;;-1.10;99.90;;;;;;5083326;28;20044;-34
2023/01/22 00:31:00;;;;;;;29.30;19.90;;;-1.10;99.90;;;;;;5083291;28;20102;-32
2023/01/22 00:33:26;;;;;;;31.92;19.95;;;-1.10;99.90;;;;;;5061488;28;20087;-33
2023/01/22 00:35:52;;;;;;;33.57;20.77;;;-1.10;99.90;;;;;;5077522;28;20471;-34
2023/01/22 00:38:17;;;;;;;31.70;19.30;;;-1.10;99.90;;;;;;5081700;28;20878;-33
2023/01/22 00:40:43;;;;;;;30.50;19.23;;;-1.20;99.90;;;;;;5082313;28;20966;-33
2023/01/22 00:43:09;;;;;;;28.77;18.23;;;-1.10;99.90;;;;;;5081999;28;20688;-34
2023/01/22 00:45:34;;;;;;;27.07;17.57;;;-1.20;99.90;;;;;;5082219;28;20475;-34
2023/01/22 00:48:00;;;;;;;24.83;16.07;;;-1.20;99.90;;;;;;5081240;28;20621;-34
2023/01/22 00:50:26;;;;;;;23.17;15.60;;;-1.10;99.90;;;;;;5081983;28;20020;-34
2023/01/22 00:52:51;;;;;;;25.30;16.60;;;-1.10;99.90;;;;;;5082312;28;20049;-32
2023/01/22 00:55:17;;;;;;;24.63;16.67;;;-1.20;99.90;;;;;;5081144;28;20051;-33
2023/01/22 00:57:46;;;;;;;25.00;16.65;;;-1.10;99.90;;;;;;5082190;28;20028;-34
2023/01/22 01:00:13;;;;;;;26.53;17.57;;;-1.10;99.90;;;;;;5080503;28;20436;-33
2023/01/22 01:05:25;;;;;;;27.93;17.47;;;-1.10;99.90;;;;;;5059926;28;20032;-33
2023/01/22 01:07:51;;;;;;;23.60;15.70;;;-1.10;99.90;;;;;;5080863;28;20031;-34
2023/01/22 01:10:17;;;;;;;25.37;16.37;;;-1.10;99.90;;;;;;5080947;28;20058;-33
2023/01/22 01:12:42;;;;;;;22.37;14.53;;;-1.20;99.90;;;;;;5081856;28;20024;-34
2023/01/22 01:15:08;;;;;;;20.63;13.90;;;-1.20;99.90;;;;;;5080251;28;20039;-32
2023/01/22 01:17:34;;;;;;;19.97;13.37;;;-1.10;99.90;;;;;;5081021;28;20106;-33
2023/01/22 01:20:00;;;;;;;19.30;12.93;;;-1.20;99.90;;;;;;5081436;28;20063;-34
2023/01/22 01:22:25;;;;;;;18.57;12.73;;;-1.20;99.90;;;;;;5079910;28;20134;-33
2023/01/22 01:24:51;;;;;;;17.20;11.93;;;-1.20;99.90;;;;;;5072697;28;20028;-33
2023/01/22 01:27:16;;;;;;;20.63;13.53;;;-1.20;99.90;;;;;;5073072;28;20016;-33
2023/01/22 01:29:42;;;;;;;17.97;12.20;;;-1.20;99.90;;;;;;5080834;28;20066;-34
2023/01/22 01:32:08;;;;;;;18.73;12.37;;;-1.20;99.90;;;;;;5080797;28;20046;-34
2023/01/22 01:34:33;;;;;;;21.17;13.83;;;-1.20;99.90;;;;;;5081683;28;20174;-33
2023/01/22 01:36:59;;;;;;;18.97;12.70;;;-1.20;99.90;;;;;;5080147;28;20055;-33
2023/01/22 01:39:24;;;;;;;17.53;11.67;;;-1.20;99.90;;;;;;5080878;28;20024;-33
2023/01/22 01:41:50;;;;;;;16.97;11.43;;;-1.20;99.90;;;;;;5081662;28;20028;-34
2023/01/22 01:44:23;;;;;;;19.93;12.43;;;-1.20;99.90;;;;;;5079381;28;20032;-34
2023/01/22 01:47:00;;;;;;;16.92;10.90;;;-1.20;99.90;;;;;;5081418;28;20024;-32
2023/01/22 01:49:42;;;;;;;19.40;13.00;;;-1.20;99.90;;;;;;5080529;28;20039;-34
2023/01/22 01:52:11;;;;;;;19.20;13.15;;;-1.20;99.90;;;;;;5080201;28;20804;-34
2023/01/22 01:54:39;;;;;;;19.30;12.60;;;-1.20;99.90;;;;;;5081217;28;20157;-34
2023/01/22 01:57:10;;;;;;;18.53;12.73;;;-1.20;99.90;;;;;;5079786;28;20639;-34
2023/01/22 01:59:36;;;;;;;18.60;12.63;;;-1.20;99.90;;;;;;5081446;28;20123;-35
2023/01/22 02:02:03;;;;;;;20.37;13.20;;;-1.20;99.90;;;;;;5080245;28;20020;-34
2023/01/22 02:04:28;;;;;;;18.67;12.50;;;-1.20;99.90;;;;;;5080182;28;20020;-34
2023/01/22 02:06:54;;;;;;;20.17;13.73;;;-1.20;99.90;;;;;;5081124;28;20089;-34
2023/01/22 02:09:20;;;;;;;19.97;12.80;;;-1.20;99.90;;;;;;5079808;28;20467;-33
2023/01/22 02:11:48;;;;;;;20.00;12.70;;;-1.20;99.90;;;;;;5080310;28;20016;-33
2023/01/22 02:14:19;;;;;;;18.90;12.60;;;-1.20;99.90;;;;;;5079763;28;20054;-32
2023/01/22 02:16:44;;;;;;;20.50;12.60;;;-1.30;99.90;;;;;;5080210;28;20115;-33
2023/01/22 02:19:10;;;;;;;18.47;12.23;;;-1.30;99.90;;;;;;5079140;28;20028;-34
2023/01/22 02:21:43;;;;;;;16.73;11.60;;;-1.30;99.90;;;;;;5081021;28;20028;-34
2023/01/22 02:24:15;;;;;;;17.53;11.57;;;-1.30;99.90;;;;;;5081060;28;20035;-34
2023/01/22 02:26:43;;;;;;;19.57;12.40;;;-1.30;99.90;;;;;;5079765;28;20048;-34
2023/01/22 02:29:11;;;;;;;16.53;11.97;;;-1.40;99.90;;;;;;5079293;28;20105;-33
2023/01/22 02:31:39;;;;;;;20.27;12.17;;;-1.30;99.90;;;;;;5079914;28;20135;-33
2023/01/22 02:34:05;;;;;;;17.40;11.67;;;-1.30;99.90;;;;;;5079534;28;20086;-33
2023/01/22 02:36:33;;;;;;;18.80;11.73;;;-1.30;99.90;;;;;;5080580;28;20510;-32
2023/01/22 02:38:59;;;;;;;17.87;11.63;;;-1.30;99.90;;;;;;5079213;28;20024;-33
2023/01/22 02:41:25;;;;;;;16.73;11.03;;;-1.30;99.90;;;;;;5080242;28;20134;-33
2023/01/22 02:43:51;;;;;;;16.97;11.97;;;-1.30;99.90;;;;;;5080136;28;20054;-33
2023/01/22 02:46:17;;;;;;;17.83;11.63;;;-1.20;99.90;;;;;;5078773;28;20467;-33
2023/01/22 02:48:42;;;;;;;17.00;11.10;;;-1.20;99.90;;;;;;5080731;28;20036;-34
2023/01/22 02:51:08;;;;;;;16.87;11.70;;;-1.20;99.90;;;;;;5079332;28;20029;-35
2023/01/22 02:53:34;;;;;;;19.43;11.40;;;-1.20;99.90;;;;;;5080135;28;20032;-33
2023/01/22 02:56:03;;;;;;;16.37;11.37;;;-1.20;99.90;;;;;;5080984;28;20371;-43
2023/01/22 02:58:29;;;;;;;15.83;10.77;;;-1.30;99.90;;;;;;5084738;28;20139;-33
2023/01/22 03:00:54;;;;;;;17.67;10.77;;;-1.30;99.90;;;;;;5083409;28;20402;-34
2023/01/22 03:03:20;;;;;;;16.53;10.63;;;-1.30;99.90;;;;;;5063336;28;20577;-33
2023/01/22 03:05:50;;;;;;;13.50;9.30;;;-1.30;99.90;;;;;;5077925;28;20028;-33
2023/01/22 03:08:17;;;;;;;14.50;10.20;;;-1.30;99.90;;;;;;5082169;28;20036;-33
2023/01/22 03:10:43;;;;;;;13.23;9.53;;;-1.20;99.90;;;;;;5083606;28;20112;-34
2023/01/22 03:21:21;;;;;;;18.43;12.07;;;-0.90;99.90;;;;;;5082601;28;20054;-33
2023/01/22 03:23:50;;;;;;;14.40;10.87;;;-0.80;99.90;;;;;;5083782;28;20023;-33
2023/01/22 03:26:16;;;;;;;16.37;11.10;;;-0.80;99.90;;;;;;5083036;28;20089;-34
2023/01/22 03:28:42;;;;;;;16.53;10.63;;;-0.70;99.90;;;;;;5082885;28;20040;-34
2023/01/22 03:31:08;;;;;;;15.77;11.13;;;-0.70;99.90;;;;;;5083000;28;20016;-34
2023/01/22 03:33:34;;;;;;;16.03;11.20;;;-0.60;99.90;;;;;;5084229;28;20028;-33
2023/01/22 03:36:01;;;;;;;16.27;10.63;;;-0.60;99.90;;;;;;5082107;28;20081;-33
2023/01/22 03:38:27;;;;;;;15.80;10.47;;;-0.50;99.90;;;;;;5083089;28;20028;-33
2023/01/22 03:40:52;;;;;;;15.85;9.80;;;-0.40;99.90;;;;;;5083260;28;20027;-33
2023/01/22 03:43:18;;;;;;;16.77;11.10;;;-0.40;99.90;;;;;;5081509;28;20024;-34
2023/01/22 03:45:43;;;;;;;17.73;11.63;;;-0.30;99.90;;;;;;5083445;28;20027;-33
2023/01/22 03:48:09;;;;;;;16.30;11.35;;;-0.30;99.90;;;;;;5082591;28;20085;-33
2023/01/22 03:50:35;;;;;;;16.52;11.73;;;-0.20;99.90;;;;;;5082608;28;20032;-33
2023/01/22 03:53:02;;;;;;;17.08;11.45;;;-0.20;99.90;;;;;;5082338;28;20024;-34
2023/01/22 03:55:28;;;;;;;17.77;11.68;;;-0.10;99.90;;;;;;5083316;28;20059;-33
2023/01/22 03:57:54;;;;;;;16.48;9.93;;;0.00;99.90;;;;;;5081887;28;20127;-34
2023/01/22 04:00:20;;;;;;;16.35;11.15;;;0.00;99.90;;;;;;5082467;28;20102;-33
2023/01/22 04:02:45;;;;;;;16.45;11.23;;;0.00;99.90;;;;;;5083048;28;20017;-34
2023/01/22 04:05:11;;;;;;;17.10;11.95;;;0.10;99.90;;;;;;5081683;28;20536;-34
2023/01/22 04:07:36;;;;;;;18.35;11.43;;;0.10;99.90;;;;;;5083130;28;20032;-34
2023/01/22 04:10:02;;;;;;;15.32;10.82;;;0.10;99.90;;;;;;5082047;28;20039;-33
2023/01/22 04:12:28;;;;;;;17.13;11.13;;;0.10;99.90;;;;;;5082625;28;20027;-33
2023/01/22 04:14:53;;;;;;;17.17;11.30;;;0.20;99.90;;;;;;5083223;28;20622;-32
2023/01/22 04:17:19;;;;;;;16.80;10.65;;;0.20;99.90;;;;;;5081044;28;20808;-33
2023/01/22 04:19:44;;;;;;;17.35;11.75;;;0.20;99.90;;;;;;5082766;28;20467;-33
2023/01/22 04:22:10;;;;;;;17.33;11.43;;;0.20;99.90;;;;;;5082165;28;20020;-33
2023/01/22 04:24:35;;;;;;;17.27;11.45;;;0.20;99.90;;;;;;5082076;28;20027;-33
2023/01/22 04:27:01;;;;;;;17.50;12.30;;;0.30;99.90;;;;;;5082086;28;20101;-33
2023/01/22 04:29:26;;;;;;;17.40;11.85;;;0.30;99.90;;;;;;5082437;28;20028;-33
2023/01/22 04:31:52;;;;;;;16.25;12.70;;;0.30;99.90;;;;;;5082217;28;20016;-32
2023/01/22 04:34:17;;;;;;;16.20;11.10;;;0.30;99.90;;;;;;5081262;28;20048;-32
2023/01/22 04:36:43;;;;;;;15.20;11.20;;;0.30;99.90;;;;;;5083081;28;20107;-33
2023/01/22 04:39:08;;;;;;;15.88;11.30;;;0.30;99.90;;;;;;5081076;28;20028;-34
2023/01/22 04:41:34;;;;;;;15.68;10.98;;;0.30;99.90;;;;;;5081746;28;20043;-32
2023/01/22 04:43:59;;;;;;;17.38;11.57;;;0.30;99.90;;;;;;5082436;28;20063;-32
2023/01/22 04:46:25;;;;;;;14.93;10.95;;;0.30;99.90;;;;;;5081855;28;20024;-32
2023/01/22 04:48:50;;;;;;;16.63;11.15;;;0.30;99.90;;;;;;5081849;28;20100;-32
2023/01/22 04:51:16;;;;;;;20.42;13.77;;;0.30;99.90;;;;;;5081841;28;20056;-32
2023/01/22 04:53:42;;;;;;;16.95;12.75;;;0.30;99.90;;;;;;5081186;28;20062;-33
2023/01/22 04:56:07;;;;;;;16.77;12.10;;;0.40;99.90;;;;;;5081522;28;20032;-32
2023/01/22 04:58:33;;;;;;;17.45;12.20;;;0.40;99.90;;;;;;5082282;28;20547;-32
2023/01/22 05:00:58;;;;;;;20.23;12.50;;;0.40;99.90;;;;;;5081094;28;20073;-33
2023/01/22 05:03:24;;;;;;;18.02;13.48;;;0.40;99.90;;;;;;5081342;28;20028;-32
2023/01/22 05:05:49;;;;;;;15.70;11.85;;;0.40;99.90;;;;;;5081852;28;20101;-32
2023/01/22 05:08:15;;;;;;;17.20;11.95;;;0.40;99.90;;;;;;5080163;28;20028;-33
2023/01/22 05:10:41;;;;;;;17.13;13.15;;;0.40;99.90;;;;;;5081466;28;20020;-32
2023/01/22 05:13:06;;;;;;;17.98;12.80;;;0.40;99.90;;;;;;5081356;28;20024;-33
2023/01/22 05:15:32;;;;;;;18.25;12.85;;;0.40;99.90;;;;;;5080464;28;20032;-33
2023/01/22 05:17:58;;;;;;;19.63;12.68;;;0.40;99.90;;;;;;5081050;28;20028;-33
2023/01/22 05:20:24;;;;;;;22.05;13.13;;;0.50;99.90;;;;;;5080452;28;20035;-33
2023/01/22 05:22:50;;;;;;;20.58;14.00;;;0.40;99.90;;;;;;5081790;28;20065;-32
2023/01/22 05:25:16;;;;;;;18.02;13.25;;;0.40;99.90;;;;;;5081154;28;20051;-35
2023/01/22 05:27:42;;;;;;;18.25;13.38;;;0.40;99.90;;;;;;5081258;28;20483;-33
2023/01/22 05:30:10;;;;;;;20.85;13.23;;;0.50;99.90;;;;;;5080896;28;20032;-32
2023/01/22 05:32:36;;;;;;;20.50;12.90;;;0.50;99.90;;;;;;5081284;28;20761;-33
2023/01/22 05:35:03;;;;;;;15.73;11.73;;;0.50;99.90;;;;;;5079973;28;20047;-33
2023/01/22 05:37:30;;;;;;;17.92;13.18;;;0.50;99.90;;;;;;5081580;28;20024;-33
2023/01/22 05:39:56;;;;;;;19.08;13.45;;;0.50;99.90;;;;;;5081409;28;20035;-32
2023/01/22 05:42:21;;;;;;;18.30;13.35;;;0.50;99.90;;;;;;5079885;28;20020;-33
2023/01/22 05:44:47;;;;;;;20.00;14.23;;;0.50;99.90;;;;;;5081136;28;20047;-33
2023/01/22 05:47:13;;;;;;;20.10;14.45;;;0.50;99.90;;;;;;5080544;28;20016;-34
2023/01/22 05:49:40;;;;;;;19.83;13.88;;;0.50;99.90;;;;;;5080036;28;20479;-34
2023/01/22 05:52:06;;;;;;;19.00;13.30;;;0.60;99.90;;;;;;5081009;28;20016;-34
2023/01/22 05:54:31;;;;;;;17.75;13.25;;;0.50;99.90;;;;;;5080785;28;20035;-34
2023/01/22 05:56:57;;;;;;;22.17;14.05;;;0.50;99.90;;;;;;5080017;28;20016;-34
2023/01/22 05:59:22;;;;;;;16.38;12.90;;;0.60;99.90;;;;;;5081111;28;20020;-34
2023/01/22 06:01:48;;;;;;;17.77;12.93;;;0.60;99.90;;;;;;5081862;28;20020;-34
2023/01/22 06:04:13;;;;;;;18.00;11.98;;;0.60;99.90;;;;;;5080506;28;20024;-34
2023/01/22 06:06:39;;;;;;;17.20;12.73;;;0.60;99.90;;;;;;5081015;28;20024;-33
2023/01/22 06:09:04;;;;;;;18.17;13.43;;;0.60;99.90;;;;;;5080773;28;20379;-33
2023/01/22 06:11:30;;;;;;;19.52;14.10;;;0.60;99.90;;;;;;5079987;28;20484;-33
2023/01/22 06:13:55;;;;;;;18.08;12.57;;;0.60;99.90;;;;;;5081893;28;20078;-32
2023/01/22 06:16:21;;;;;;;15.90;11.93;;;0.60;99.90;;;;;;5080710;28;20111;-33
2023/01/22 06:18:47;;;;;;;16.88;12.07;;;0.60;99.90;;;;;;5080366;28;20031;-33
2023/01/22 06:21:12;;;;;;;15.95;11.65;;;0.60;99.90;;;;;;5080612;28;20020;-33
2023/01/22 06:23:38;;;;;;;14.27;11.35;;;0.60;99.90;;;;;;5079660;28;20060;-33
2023/01/22 06:26:04;;;;;;;15.80;12.15;;;0.70;99.90;;;;;;5079854;28;20537;-33
2023/01/22 06:28:30;;;;;;;19.35;12.50;;;0.70;99.90;;;;;;5080468;28;20088;-33
2023/01/22 06:31:01;;;;;;;16.50;11.98;;;0.70;99.90;;;;;;5081538;28;20028;-33
2023/01/22 06:33:26;;;;;;;17.23;12.15;;;0.60;99.90;;;;;;5084294;28;20819;-34
2023/01/22 06:35:55;;;;;;;17.73;11.93;;;0.60;99.90;;;;;;5084933;28;20123;-33
2023/01/22 06:38:22;;;;;;;16.80;12.65;;;0.70;99.90;;;;;;5083708;28;20042;-34
2023/01/22 06:40:55;;;;;;;14.45;11.18;;;0.70;99.90;;;;;;5084926;28;20024;-34
2023/01/22 06:43:22;;;;;;;14.02;11.35;;;0.60;99.90;;;;;;5083359;28;20028;-33
2023/01/22 06:45:47;;;;;;;15.40;11.48;;;0.70;99.90;;;;;;5084357;28;20592;-34
2023/01/22 06:48:13;;;;;;;14.63;10.65;;;0.70;99.90;;;;;;5084281;28;20024;-34
2023/01/22 06:50:38;;;;;;;14.50;10.95;;;0.60;99.90;;;;;;5084931;28;20395;-34
2023/01/22 06:53:04;;;;;;;15.38;11.00;;;0.70;99.90;;;;;;5083850;28;20032;-33
2023/01/22 06:55:29;;;;;;;16.10;11.65;;;0.60;99.90;;;;;;5085355;28;20059;-32
2023/01/22 06:57:55;;;;;;;15.00;11.50;;;0.60;99.90;;;;;;5084345;28;20863;-33
2023/01/22 07:00:22;;;;;;;13.68;10.82;;;0.60;99.90;;;;;;5083070;28;20368;-34
2023/01/22 07:02:47;;;;;;;14.05;10.07;;;0.60;99.90;;;;;;5082931;28;20365;-35
2023/01/22 07:05:14;;;;;;;14.93;11.63;;;0.60;99.90;;;;;;5083530;28;20042;-34
2023/01/22 07:07:40;;;;;;;15.20;10.13;;;0.50;99.90;;;;;;5083622;28;20052;-34
2023/01/22 07:10:06;;;;;;;14.02;10.85;;;0.60;99.90;;;;;;5083806;28;20107;-34
2023/01/22 07:12:32;;;;;;;14.90;11.02;;;0.60;99.90;;;;;;5084063;28;20070;-32
2023/01/22 07:14:58;;;;;;;13.50;10.70;;;0.50;99.90;;;;;;5083554;28;20020;-34
2023/01/22 07:17:23;;;;;;;15.05;10.18;;;0.50;99.90;;;;;;5083629;28;20024;-33
2023/01/22 07:19:49;;;;;;;14.75;10.25;;;0.50;99.90;;;;;;5083049;28;20031;-33
2023/01/22 07:22:14;;;;;;;13.98;10.18;;;0.50;99.90;;;;;;5083998;28;20058;-33
2023/01/22 07:24:40;;;;;;;14.45;9.48;;;0.50;99.90;;;;;;5083750;28;20097;-33
2023/01/22 07:27:05;;;;;;;13.43;10.02;;;0.50;99.90;;;;;;5082698;28;20837;-33
2023/01/22 07:29:31;;;;;;;15.20;10.27;;;0.50;99.90;;;;;;5083605;28;20898;-34
2023/01/22 07:31:56;;;;;;;12.32;9.38;;;0.60;99.90;;;;;;5083005;28;20020;-33
2023/01/22 07:34:22;;;;;;;15.32;11.23;;;0.60;99.90;;;;;;5082447;28;20053;-34
2023/01/22 07:36:48;;;;;;;15.73;10.60;;;0.50;99.90;;;;;;5084030;28;20031;-34
2023/01/22 07:39:13;;;;;;;15.48;10.45;;;0.50;99.90;;;;;;5082743;28;20031;-33
2023/01/22 07:41:39;;;;;;;13.18;9.40;;;0.50;99.90;;;;;;5081630;28;20024;-34
2023/01/22 07:44:06;;;;;;;14.63;9.18;;;0.60;99.90;;;;;;5082495;28;20111;-33
2023/01/22 07:46:33;;;;;;;12.20;9.30;;;0.50;99.90;;;;;;5083756;28;20036;-33
2023/01/22 07:48:59;;;;;;;12.10;9.18;;;0.60;99.90;;;;;;5082397;28;20036;-33
2023/01/22 07:51:25;;;;;;;10.93;9.07;;;0.50;99.90;;;;;;5082668;28;20030;-34
2023/01/22 07:53:50;;;;;;;11.20;8.95;;;0.60;99.90;;;;;;5083678;28;20032;-33
2023/01/22 07:56:17;;;;;;;12.15;8.93;;;0.60;99.90;;;;;;5084271;28;20382;-33
2023/01/22 07:58:44;;;;;;;14.07;9.68;;;0.60;99.90;;;;;;5104957;28;20032;-34
2023/01/22 08:01:10;;;;;;;13.13;10.30;;;0.60;99.90;;;;;;5083622;28;20028;-34
2023/01/22 08:03:36;;;;;;;14.57;10.43;;;0.60;99.90;;;;;;5083450;28;20043;-34
2023/01/22 08:06:10;;;;;;;14.00;10.10;;;0.60;99.90;;;;;;5083182;28;20383;-34
2023/01/22 08:08:36;;;;;;;13.77;10.10;;;0.60;99.90;;;;;;5063342;28;20102;-33
2023/01/22 08:11:03;;;;;;;14.10;9.70;;;0.60;99.90;;;;;;5074396;28;20024;-33
2023/01/22 08:13:28;;;;;;;13.75;10.05;;;0.70;99.90;;;;;;5082542;28;20720;-33
2023/01/22 08:15:54;;;;;;;17.90;10.43;;;0.70;99.90;;;;;;5081955;28;20649;-33
2023/01/22 08:18:20;;;;;;;15.45;11.93;;;0.80;99.90;;;;;;5081167;28;20169;-32
2023/01/22 08:20:46;;;;;;;13.98;10.88;;;0.80;99.90;;;;;;5081520;28;20032;-33
2023/01/22 08:23:11;;;;;;;16.05;10.63;;;0.80;99.90;;;;;;5081494;28;20111;-35
2023/01/22 08:25:37;;;;;;;13.43;10.40;;;0.80;99.90;;;;;;5081710;28;20070;-34
2023/01/22 08:28:04;;;;;;;18.17;11.82;;;0.90;99.90;;;;;;5081260;28;20028;-34
2023/01/22 08:30:30;;;;;;;15.82;10.48;;;0.90;99.90;;;;;;5080585;28;20036;-34
2023/01/22 08:32:56;;;;;;;13.70;10.00;;;0.90;99.90;;;;;;5081596;28;20103;-34
2023/01/22 08:35:22;;;;;;;12.30;9.20;;;1.00;99.90;;;;;;5081431;28;20842;-33
2023/01/22 08:37:47;;;;;;;12.43;9.10;;;1.00;99.90;;;;;;5081536;28;20119;-34
2023/01/22 08:40:13;;;;;;;10.50;8.77;;;1.00;99.90;;;;;;5081529;28;20027;-34
2023/01/22 08:42:39;;;;;;;11.52;8.55;;;1.00;99.90;;;;;;5082057;28;20498;-33
2023/01/22 08:45:06;;;;;;;9.25;7.65;;;1.10;99.90;;;;;;5080476;28;20043;-34
2023/01/22 08:47:31;;;;;;;11.73;9.73;;;1.10;99.90;;;;;;5081803;28;20120;-33
2023/01/22 08:49:57;;;;;;;14.73;9.65;;;1.10;99.90;;;;;;5081798;28;20076;-34
2023/01/22 08:52:22;;;;;;;12.40;9.82;;;1.10;99.90;;;;;;5080669;28;20482;-33
2023/01/22 08:54:48;;;;;;;14.50;9.98;;;1.10;99.90;;;;;;5080737;28;20169;-34
2023/01/22 08:57:14;;;;;;;10.40;9.00;;;1.20;99.90;;;;;;5080880;28;20027;-34
2023/01/22 08:59:39;;;;;;;10.45;8.88;;;1.20;99.90;;;;;;5081286;28;20031;-33
2023/01/22 09:02:05;;;;;;;11.90;9.38;;;1.20;99.90;;;;;;5081176;28;20024;-34
2023/01/22 09:04:31;;;;;;;10.95;9.27;;;1.20;99.90;;;;;;5080887;28;20047;-34
2023/01/22 09:06:56;;;;;;;12.15;9.32;;;1.30;99.90;;;;;;5080169;28;20058;-33
2023/01/22 09:09:22;;;;;;;10.25;8.68;;;1.30;99.90;;;;;;5080895;28;20020;-34
2023/01/22 09:11:47;;;;;;;12.05;9.73;;;1.30;99.90;;;;;;5080763;28;20053;-34
2023/01/22 09:14:13;;;;;;;10.73;9.63;;;1.30;99.90;;;;;;5080415;28;20024;-33
2023/01/22 09:16:39;;;;;;;11.85;9.70;;;1.30;99.90;;;;;;5080878;28;20020;-33
2023/01/22 09:19:06;;;;;;;11.25;9.38;;;1.40;99.90;;;;;;5080891;28;20475;-33
2023/01/22 09:21:32;;;;;;;10.77;8.75;;;1.40;99.90;;;;;;5080293;28;20044;-33
2023/01/22 09:23:59;;;;;;;10.55;8.52;;;1.40;99.90;;;;;;5081021;28;20103;-32
2023/01/22 09:26:25;;;;;;;12.40;9.50;;;1.40;99.90;;;;;;5080550;28;20556;-33
2023/01/22 09:28:51;;;;;;;12.35;8.85;;;1.50;99.90;;;;;;5080963;28;20043;-33
2023/01/22 09:31:17;;;;;;;9.35;8.35;;;1.50;99.90;;;;;;5079337;28;20016;-32
2023/01/22 09:33:42;;;;;;;12.93;8.90;;;1.50;99.90;;;;;;5079847;28;20131;-33
2023/01/22 09:36:10;;;;;;;11.98;8.40;;;1.50;99.90;;;;;;5080449;28;20043;-33
2023/01/22 09:38:37;;;;;;;10.88;9.05;;;1.50;99.90;;;;;;5080709;28;20031;-33
2023/01/22 09:41:15;;;;;;;9.50;8.10;;;1.50;99.90;;;;;;5079297;28;20486;-33
2023/01/22 09:44:33;;;;;;;12.43;9.52;;;1.50;99.90;;;;;;5080734;28;20036;-34
2023/01/22 09:47:15;;;;;;;9.88;8.68;;;1.50;99.90;;;;;;5047382;28;20029;-34
2023/01/22 09:49:59;;;;;;;11.88;8.88;;;1.60;99.90;;;;;;5077099;28;20039;-34
2023/01/22 09:52:29;;;;;;;11.93;9.07;;;1.60;99.90;;;;;;5081484;28;20091;-33
2023/01/22 09:54:55;;;;;;;12.77;9.57;;;1.60;99.90;;;;;;5080384;28;20043;-33
2023/01/22 09:57:21;;;;;;;11.55;8.30;;;1.60;99.90;;;;;;5080523;28;20682;-33
2023/01/22 09:59:50;;;;;;;10.38;8.40;;;1.60;99.90;;;;;;5081257;28;20103;-33
2023/01/22 10:02:24;;;;;;;12.05;8.50;;;1.60;99.90;;;;;;5080532;28;20036;-34
2023/01/22 10:04:55;;;;;;;11.43;8.80;;;1.70;99.90;;;;;;5080749;28;20089;-34
2023/01/22 10:07:35;;;;;;;10.77;8.38;;;1.70;99.90;;;;;;5080790;28;20024;-33
2023/01/22 10:10:19;;;;;;;11.25;9.07;;;1.70;99.90;;;;;;5079596;28;20039;-33
2023/01/22 10:12:52;;;;;;;10.32;8.70;;;1.70;99.90;;;;;;5061721;28;20028;-34
2023/01/22 10:15:19;;;;;;;;;;;1.80;99.90;;;;;;5076543;28;20050;-33
2023/01/22 10:17:46;;;;;;;14.10;9.65;;;1.80;99.90;;;;;;5080484;28;19908;-34
2023/01/22 10:20:13;;;;;;;12.38;9.13;;;1.80;99.90;;;;;;5080768;28;20066;-33
2023/01/22 10:22:39;;;;;;;10.45;8.13;;;1.80;99.90;;;;;;5080108;28;20036;-34
2023/01/22 10:25:05;;;;;;;10.82;8.57;;;1.80;99.90;;;;;;5079659;28;20031;-34
2023/01/22 10:27:38;;;;;;;12.18;8.57;;;1.80;99.90;;;;;;5080718;28;20031;-32
2023/01/22 10:30:13;;;;;;;12.07;8.80;;;1.80;99.90;;;;;;5080230;28;20785;-32
2023/01/22 10:32:38;;;;;;;10.98;8.88;;;1.90;99.90;;;;;;5080546;28;20043;-32
2023/01/22 10:35:24;;;;;;;13.15;9.48;;;1.90;99.90;;;;;;5080506;28;20048;-33
2023/01/22 10:37:52;;;;;;;10.68;8.68;;;1.90;99.90;;;;;;5079594;28;20130;-33
2023/01/22 10:40:29;;;;;;;13.20;9.43;;;1.90;99.90;;;;;;5079868;28;20137;-32
2023/01/22 10:43:16;;;;;;;12.07;8.40;;;2.00;99.90;;;;;;5081530;28;20468;-33
2023/01/22 10:45:53;;;;;;;11.45;8.55;;;2.00;99.90;;;;;;5081246;28;20036;-33
2023/01/22 10:48:20;;;;;;;15.50;10.48;;;2.00;99.90;;;;;;5080044;28;20503;-34
2023/01/22 10:50:57;;;;;;;12.20;9.60;;;2.10;99.90;;;;;;5080060;28;20119;-33
2023/01/22 10:53:32;;;;;;;14.23;9.70;;;2.00;99.90;;;;;;5080152;28;20032;-32
2023/01/22 10:56:01;;;;;;;12.02;9.48;;;2.00;99.90;;;;;;5080130;28;20024;-35
2023/01/22 10:58:36;;;;;;;12.10;8.55;;;2.00;99.90;;;;;;5079995;28;20039;-34
2023/01/22 11:01:05;;;;;;;13.63;8.93;;;2.10;99.90;;;;;;5079335;28;20024;-33
2023/01/22 11:03:31;;;;;;;10.93;9.30;;;2.10;99.90;;;;;;5080896;28;20032;-34
2023/01/22 11:06:20;;;;;;;10.88;8.45;;;2.10;99.90;;;;;;5079759;28;20035;-39
2023/01/22 11:08:55;;;;;;;11.02;8.10;;;2.10;99.90;;;;;;5080140;28;20040;-33
2023/01/22 11:11:30;;;;;;;12.40;8.60;;;2.10;99.90;;;;;;5079591;28;20020;-33
2023/01/22 11:14:14;;;;;;;9.70;8.38;;;2.20;99.90;;;;;;5079959;28;20597;-33
2023/01/22 11:16:42;;;;;;;12.75;8.68;;;2.20;99.90;;;;;;5081044;28;20039;-34
2023/01/22 11:19:15;;;;;;;10.73;8.95;;;2.20;99.90;;;;;;5082528;28;20682;-33
2023/01/22 11:21:52;;;;;;;;;;;2.10;99.90;;;;;;5084489;28;20835;-33
2023/01/22 11:24:41;;;;;;;8.95;7.78;;;2.10;99.90;;;;;;5083724;28;19920;-33
2023/01/22 11:27:13;;;;;;;10.18;9.00;;;2.10;99.90;;;;;;5082178;28;20035;-33
2023/01/22 11:30:11;;;;;;;13.27;9.15;;;2.10;99.90;;;;;;5083206;28;20551;-33
2023/01/22 11:32:43;;;;;;;10.98;8.93;;;2.10;99.90;;;;;;5083351;28;20039;-35
2023/01/22 11:35:25;;;;;;;11.32;9.20;;;2.10;99.90;;;;;;5082904;28;20161;-34
2023/01/22 11:38:41;;;;;;;11.27;9.05;;;2.20;99.90;;;;;;5083466;28;20032;-33
2023/01/22 11:41:16;;;;;;;12.80;9.25;;;2.20;99.90;;;;;;5062890;28;20372;-33
2023/01/22 11:43:44;;;;;;;10.57;9.27;;;2.20;99.90;;;;;;5083888;28;20119;-33
2023/01/22 11:46:33;;;;;;;14.95;10.57;;;2.20;99.90;;;;;;5084015;28;20387;-33
2023/01/22 11:49:35;;;;;;;10.63;9.45;;;2.20;99.90;;;;;;5079724;28;20036;-32
2023/01/22 11:52:29;;;;;;;13.15;10.02;;;2.20;99.90;;;;;;5083471;28;20028;-33
2023/01/22 11:55:07;;;;;;;12.77;10.57;;;2.10;99.90;;;;;;5073028;28;20051;-34
2023/01/22 11:57:37;;;;;;;12.35;10.05;;;2.10;99.90;;;;;;5083760;28;20016;-33
2023/01/22 12:00:18;;;;;;;12.57;9.85;;;2.20;99.90;;;;;;5082147;28;20017;-32
2023/01/22 12:03:18;;;;;;;10.00;8.32;;;2.20;99.90;;;;;;5083507;28;20135;-33
2023/01/22 12:05:49;;;;;;;12.27;8.60;;;2.30;99.90;;;;;;5082612;28;20472;-32
2023/01/22 12:08:34;;;;;;;11.75;9.10;;;2.30;99.90;;;;;;5081035;28;20443;-32
2023/01/22 12:11:24;;;;;;;13.73;9.68;;;2.30;99.90;;;;;;5083010;28;20039;-33
2023/01/22 12:14:18;;;;;;;10.73;9.18;;;2.40;99.90;;;;;;5082759;28;20568;-33
2023/01/22 12:16:53;;;;;;;10.98;9.30;;;2.40;99.90;;;;;;5082140;28;20040;-33
2023/01/22 12:19:23;;;;;;;12.85;9.60;;;2.40;99.90;;;;;;5081577;28;20467;-32
2023/01/22 12:22:24;;;;;;;11.32;9.63;;;2.40;99.90;;;;;;5082938;28;20106;-32
2023/01/22 12:24:57;;;;;;;10.90;8.20;;;2.50;99.90;;;;;;5081924;28;20032;-32
2023/01/22 12:27:41;;;;;;;13.00;9.15;;;2.50;99.90;;;;;;5082659;28;20100;-33
2023/01/22 12:30:27;;;;;;;12.50;9.13;;;2.60;99.90;;;;;;5080808;28;20040;-33
2023/01/22 12:32:58;;;;;;;11.88;9.70;;;2.60;99.90;;;;;;5082752;28;20881;-33
2023/01/22 12:35:27;;;;;;;13.23;9.18;;;2.60;99.90;;;;;;5082194;28;20052;-44
2023/01/22 12:38:21;;;;;;;13.63;9.75;;;2.70;99.90;;;;;;5082245;28;20032;-43
2023/01/22 12:41:06;;;;;;;14.73;10.00;;;2.70;99.90;;;;;;5081333;28;20760;-44
2023/01/22 12:43:39;;;;;;;14.23;10.40;;;2.70;99.90;;;;;;5081638;28;20039;-43
2023/01/22 12:46:21;;;;;;;14.93;10.38;;;2.70;99.90;;;;;;5078275;28;20081;-42
2023/01/22 12:49:06;;;;;;;16.13;10.18;;;2.70;99.90;;;;;;5082089;28;20097;-43
2023/01/22 12:51:47;;;;;;;14.57;11.02;;;2.70;99.90;;;;;;5081065;28;20810;-43
2023/01/22 12:54:21;;;;;;;12.38;9.85;;;2.80;99.90;;;;;;5081376;28;20024;-43
2023/01/22 12:56:49;;;;;;;18.48;10.80;;;2.80;99.90;;;;;;5082181;28;21012;-44
2023/01/22 12:59:37;;;;;;;15.02;10.82;;;2.80;99.90;;;;;;5080754;28;20028;-44